createdAt,value
2024-02-19T00:00:11.295Z,99122.03
2024-02-19T00:03:16.854Z,99143.56
2024-02-19T00:12:46.184Z,99147.22
2024-02-19T00:15:18.619Z,99121.31
2024-02-19T00:18:17.597Z,99135.78
2024-02-19T00:20:52.233Z,99155.94
2024-02-19T00:23:19.779Z,99162.66
2024-02-19T00:25:47.298Z,99150.03
2024-02-19T00:28:16.652Z,99157.53
2024-02-19T00:34:13.033Z,99155.22
2024-02-19T00:37:13.245Z,99198.63
2024-02-19T00:43:07.249Z,99169.16
2024-02-19T00:45:35.096Z,99178.63
2024-02-19T00:48:03.013Z,99201.78
2024-02-19T00:50:30.654Z,99197.97
2024-02-19T00:53:14.816Z,99204.75
2024-02-19T00:55:42.215Z,99194.19
2024-02-19T00:58:16.427Z,99174.78
2024-02-19T01:00:44.303Z,99189.44
2024-02-19T01:03:15.709Z,99215.69
2024-02-19T01:05:43.191Z,99221.81
2024-02-19T01:08:12.625Z,99193.94
2024-02-19T01:10:44.207Z,99209.81
2024-02-19T01:13:14.809Z,99211.56
2024-02-19T01:15:46.140Z,99206.19
2024-02-19T01:18:13.899Z,99248.94
2024-02-19T01:20:46.089Z,99216.91
2024-02-19T01:23:14.007Z,99239.09
2024-02-19T01:26:06.008Z,99257.09
2024-02-19T01:28:34.013Z,99236.84
2024-02-19T01:31:02.336Z,99269.38
2024-02-19T01:33:29.689Z,99271.47
2024-02-19T01:35:57.548Z,99260.66
2024-02-19T01:42:01.241Z,99247.88
2024-02-19T01:44:28.991Z,99256.41
2024-02-19T01:46:57.508Z,99265.81
2024-02-19T01:49:25.588Z,99268.13
2024-02-19T01:51:53.832Z,99284.47
2024-02-19T01:57:51.314Z,99282.81
2024-02-19T02:06:47.549Z,99283.31
2024-02-19T02:09:15.503Z,99290.75
2024-02-19T02:11:45.031Z,99300.78
2024-02-19T02:14:12.850Z,99306.38
2024-02-19T02:17:09.735Z,99310.38
2024-02-19T02:19:38.026Z,99281.53
2024-02-19T02:22:06.150Z,99297.06
2024-02-19T02:24:33.729Z,99287.22
2024-02-19T02:27:12.242Z,99296.22
2024-02-19T02:30:27.836Z,99330.03
2024-02-19T02:33:00.374Z,99312.75
2024-02-19T02:35:27.833Z,99324.06
2024-02-19T02:41:33.206Z,99287.16
2024-02-19T02:44:01.514Z,99326.09
2024-02-19T02:46:29.032Z,99302.16
2024-02-19T02:49:32.992Z,99332.06
2024-02-19T02:53:00.626Z,99321.56
2024-02-19T02:55:28.458Z,99319.50
2024-02-19T03:01:29.905Z,99317.53
2024-02-19T03:04:24.585Z,99334.72
2024-02-19T03:06:52.513Z,99328.31
2024-02-19T03:09:20.930Z,99347.66
2024-02-19T03:11:48.608Z,99328.97
2024-02-19T03:14:51.862Z,99351.19
2024-02-19T03:17:25.866Z,99343.59
2024-02-19T03:23:21.331Z,99337.91
2024-02-19T03:25:50.781Z,99336.22
2024-02-19T03:28:25.096Z,99318.97
2024-02-19T03:30:53.059Z,99345.97
2024-02-19T03:33:21.842Z,99342.69
2024-02-19T03:40:16.869Z,99371.44
2024-02-19T03:43:02.228Z,99380.84
2024-02-19T03:45:34.577Z,99357.41
2024-02-19T03:48:39.003Z,99397.69
2024-02-19T03:51:09.196Z,99383.50
2024-02-19T03:53:36.976Z,99387.47
2024-02-19T03:56:05.779Z,99380.81
2024-02-19T03:58:36.675Z,99377.59
2024-02-19T04:01:18.228Z,99382.97
2024-02-19T04:03:48.572Z,99379.22
2024-02-19T04:13:05.037Z,99412.31
2024-02-19T04:15:32.502Z,99417.34
2024-02-19T04:17:59.789Z,99426.34
2024-02-19T04:20:29.708Z,99419.22
2024-02-19T04:22:57.218Z,99428.53
2024-02-19T04:25:25.434Z,99426.28
2024-02-19T04:27:55.823Z,99417.06
2024-02-19T04:30:22.976Z,99431.16
2024-02-19T04:32:50.766Z,99435.09
2024-02-19T04:35:18.256Z,99419.88
2024-02-19T04:37:45.435Z,99463.38
2024-02-19T04:40:16.007Z,99458.88
2024-02-19T04:42:43.589Z,99443.56
2024-02-19T04:45:11.191Z,99428.47
2024-02-19T04:47:38.363Z,99455.66
2024-02-19T04:50:39.850Z,99460.03
2024-02-19T04:53:07.484Z,99445.53
2024-02-19T04:55:35.120Z,99472.28
2024-02-19T04:58:50.784Z,99464.38
2024-02-19T05:01:18.119Z,99486.34
2024-02-19T05:03:45.761Z,99486.81
2024-02-19T05:06:13.104Z,99481.22
2024-02-19T05:08:40.398Z,99493.47
2024-02-19T05:11:09.828Z,99511.13
2024-02-19T05:13:37.860Z,99500.78
2024-02-19T05:16:07.858Z,99482.50
2024-02-19T05:18:35.363Z,99500.66
2024-02-19T05:21:07.639Z,99533.53
2024-02-19T05:23:34.942Z,99497.91
2024-02-19T05:26:04.638Z,99514.94
2024-02-19T05:28:36.237Z,99523.91
2024-02-19T05:31:04.916Z,99517.81
2024-02-19T05:33:32.364Z,99502.44
2024-02-19T05:35:59.679Z,99515.25
2024-02-19T05:38:33.588Z,99534.53
2024-02-19T05:41:01.876Z,99532.44
2024-02-19T05:43:30.268Z,99547.63
2024-02-19T05:45:57.718Z,99547.22
2024-02-19T05:48:42.630Z,99550.81
2024-02-19T05:51:13.455Z,99542.47
2024-02-19T05:53:42.317Z,99555.78
2024-02-19T05:56:10.857Z,99535.84
2024-02-19T05:58:43.963Z,99551.38
2024-02-19T06:01:14.716Z,99551.34
2024-02-19T06:03:42.362Z,99549.16
2024-02-19T06:06:09.864Z,99556.44
2024-02-19T06:08:37.195Z,99569.38
2024-02-19T06:11:05.181Z,99557.09
2024-02-19T06:13:32.545Z,99561.59
2024-02-19T06:16:00.470Z,99578.00
2024-02-19T06:18:28.100Z,99567.09
2024-02-19T06:20:55.423Z,99574.88
2024-02-19T06:23:24.673Z,99579.88
2024-02-19T06:25:52.245Z,99581.38
2024-02-19T06:28:19.810Z,99603.28
2024-02-19T06:30:47.429Z,99593.97
2024-02-19T06:33:19.720Z,99582.38
2024-02-19T06:35:47.330Z,99582.38
2024-02-19T06:38:14.652Z,99605.78
2024-02-19T06:40:42.096Z,99608.66
2024-02-19T06:43:17.512Z,99611.66
2024-02-19T06:45:45.515Z,99607.28
2024-02-19T06:48:12.883Z,99631.66
2024-02-19T06:50:41.071Z,99615.34
2024-02-19T07:06:20.278Z,99624.34
2024-02-19T07:08:48.612Z,99645.59
2024-02-19T07:11:16.179Z,99641.63
2024-02-19T07:13:45.287Z,99627.69
2024-02-19T07:16:12.983Z,99622.31
2024-02-19T07:22:11.230Z,99638.94
2024-02-19T07:28:07.455Z,99662.13
2024-02-19T07:30:37.137Z,99650.78
2024-02-19T07:33:04.916Z,99650.25
2024-02-19T07:35:35.732Z,99653.50
2024-02-19T07:38:03.317Z,99649.88
2024-02-19T07:40:33.384Z,99661.50
2024-02-19T07:43:02.897Z,99660.03
2024-02-19T07:45:30.479Z,99640.72
2024-02-19T07:51:25.051Z,99661.84
2024-02-19T08:19:09.510Z,99708.53
2024-02-19T08:21:41.522Z,99689.75
2024-02-19T08:24:09.235Z,99692.88
2024-02-19T08:33:30.951Z,99717.84
2024-02-19T08:35:59.038Z,99702.31
2024-02-19T08:38:58.524Z,99737.94
2024-02-19T08:41:26.246Z,99739.06
2024-02-19T08:44:39.500Z,99738.50
2024-02-19T08:47:09.450Z,99704.19
2024-02-19T08:49:39.980Z,99707.97
2024-02-19T08:52:08.848Z,99721.84
2024-02-19T08:54:36.422Z,99744.97
2024-02-19T08:57:04.634Z,99716.63
2024-02-19T08:59:31.974Z,99718.34
2024-02-19T09:02:05.331Z,99714.72
2024-02-19T09:04:32.848Z,99727.88
2024-02-19T09:07:00.322Z,99731.41
2024-02-19T09:09:28.098Z,99732.72
2024-02-19T09:11:55.579Z,99729.22
2024-02-19T09:14:23.975Z,99748.25
2024-02-19T09:16:51.331Z,99731.31
2024-02-19T09:19:19.936Z,99722.53
2024-02-19T09:21:47.565Z,99732.88
2024-02-19T09:24:15.250Z,99742.00
2024-02-19T09:26:43.521Z,99755.13
2024-02-19T09:29:11.092Z,99727.13
2024-02-19T09:31:38.453Z,99743.63
2024-02-19T09:34:08.698Z,99743.25
2024-02-19T09:36:36.156Z,99740.41
2024-02-19T10:41:55.324Z,99806.72
2024-02-19T10:47:23.668Z,99802.47
2024-02-19T10:50:00.085Z,99827.16
2024-02-19T10:52:28.364Z,99832.63
2024-02-19T10:55:10.056Z,99824.72
2024-02-19T10:57:53.470Z,99832.41
2024-02-19T11:00:28.192Z,99826.44
2024-02-19T11:03:09.346Z,99837.28
2024-02-19T11:05:54.251Z,99810.03
2024-02-19T11:08:23.955Z,99837.81
2024-02-19T11:10:55.941Z,99836.69
2024-02-19T11:14:22.813Z,99851.34
2024-02-19T11:16:51.623Z,99846.72
2024-02-19T11:19:19.893Z,99848.22
2024-02-19T11:21:47.788Z,99847.63
2024-02-19T11:24:15.118Z,99844.38
2024-02-19T11:26:43.741Z,99868.31
2024-02-19T11:29:15.654Z,99857.38
2024-02-19T11:31:43.602Z,99867.72
2024-02-19T11:34:19.594Z,99863.38
2024-02-19T11:36:47.997Z,99838.00
2024-02-19T11:39:15.491Z,99870.22
2024-02-19T11:41:45.141Z,99858.16
2024-02-19T11:44:19.829Z,99877.75
2024-02-19T11:49:47.447Z,99839.84
2024-02-19T11:52:15.867Z,99848.22
2024-02-19T11:54:43.612Z,99872.81
2024-02-19T11:57:20.402Z,99833.59
2024-02-19T11:59:47.805Z,99870.53
2024-02-19T12:02:15.589Z,99864.78
2024-02-19T12:04:43.722Z,99858.50
2024-02-19T12:07:26.476Z,99856.53
2024-02-19T12:09:54.317Z,99839.22
2024-02-19T12:12:25.528Z,99849.00
2024-02-19T12:15:01.301Z,99848.91
2024-02-19T12:17:54.168Z,99882.00
2024-02-19T12:20:27.320Z,99864.78
2024-02-19T12:23:17.482Z,99844.09
2024-02-19T12:25:53.119Z,99867.78
2024-02-19T12:28:20.740Z,99862.31
2024-02-19T12:30:49.201Z,99882.09
2024-02-19T12:33:18.496Z,99856.75
2024-02-19T12:35:52.833Z,99860.13
2024-02-19T12:38:21.179Z,99866.84
2024-02-19T13:38:12.046Z,99928.09
2024-02-19T13:44:08.287Z,99913.19
2024-02-19T13:46:47.243Z,99914.78
2024-02-19T13:49:32.458Z,99934.38
2024-02-19T13:52:00.070Z,99906.34
2024-02-19T13:54:27.495Z,99914.56
2024-02-19T13:56:56.755Z,99924.81
2024-02-19T13:59:25.480Z,99928.44
2024-02-19T14:01:55.840Z,99911.09
2024-02-19T14:04:24.268Z,99922.00
2024-02-19T14:06:51.854Z,99940.56
2024-02-19T14:09:24.050Z,99935.84
2024-02-19T14:11:52.250Z,99920.00
2024-02-19T14:14:19.869Z,99952.59
2024-02-19T14:16:47.292Z,99941.41
2024-02-19T14:19:17.368Z,99947.38
2024-02-19T14:21:45.334Z,99961.28
2024-02-19T14:24:12.818Z,99961.06
2024-02-19T14:27:40.129Z,99964.94
2024-02-19T14:30:10.006Z,99940.97
2024-02-19T14:32:37.752Z,99955.13
2024-02-19T14:35:07.349Z,99963.06
2024-02-19T14:37:39.070Z,99955.91
2024-02-19T14:40:10.643Z,99974.97
2024-02-19T14:42:38.578Z,99957.44
2024-02-19T14:45:11.579Z,99944.00
2024-02-19T14:47:45.019Z,99968.13
2024-02-19T14:50:18.750Z,99953.22
2024-02-19T14:52:47.284Z,99979.28
2024-02-19T14:55:19.471Z,99968.94
2024-02-19T15:01:32.173Z,99995.63
2024-02-19T15:04:45.587Z,99992.75
2024-02-19T15:14:08.329Z,99993.59
2024-02-19T15:16:35.769Z,99981.56
2024-02-19T15:19:04.025Z,99990.03
2024-02-19T15:21:35.989Z,99998.75
2024-02-19T15:24:08.931Z,100002.03
2024-02-19T15:26:36.555Z,99989.22
2024-02-19T15:29:04.167Z,100012.84
2024-02-19T15:31:31.590Z,100005.88
2024-02-19T15:34:00.136Z,99982.91
2024-02-19T15:36:27.575Z,99998.41
2024-02-19T15:38:54.941Z,100015.22
2024-02-19T15:41:25.289Z,100009.22
2024-02-19T15:43:55.627Z,99983.03
2024-02-19T15:46:27.261Z,99994.81
2024-02-19T15:48:54.973Z,100010.91
2024-02-19T15:51:22.420Z,100010.50
2024-02-19T15:53:56.134Z,99997.50
2024-02-19T15:56:23.708Z,100032.19
2024-02-19T16:02:18.002Z,100035.22
2024-02-19T16:04:45.635Z,100023.53
2024-02-19T16:07:13.530Z,100023.59
2024-02-19T16:09:41.178Z,100041.66
2024-02-19T16:12:08.887Z,100027.22
2024-02-19T16:14:38.603Z,100018.03
2024-02-19T16:17:06.500Z,100041.63
2024-02-19T16:19:34.032Z,100035.22
2024-02-19T16:22:01.768Z,100014.91
2024-02-19T16:24:35.687Z,100010.53
2024-02-19T16:27:05.286Z,100021.66
2024-02-19T16:29:32.832Z,100019.78
2024-02-19T16:32:00.366Z,100047.88
2024-02-19T16:34:28.057Z,100032.47
2024-02-19T16:36:55.708Z,100043.22
2024-02-19T16:39:24.525Z,100048.13
2024-02-19T16:41:52.388Z,100039.66
2024-02-19T16:44:30.728Z,100056.31
2024-02-19T16:46:59.289Z,100051.50
2024-02-19T16:49:27.142Z,100035.78
2024-02-19T16:52:05.309Z,100050.31
2024-02-19T16:55:20.378Z,100053.06
2024-02-19T16:57:49.924Z,100030.38
2024-02-19T17:04:30.530Z,100059.88
2024-02-19T17:07:03.663Z,100036.75
2024-02-19T17:09:33.260Z,100042.25
2024-02-19T17:12:01.995Z,100040.53
2024-02-19T17:14:30.836Z,100053.56
2024-02-19T17:17:01.982Z,100047.28
2024-02-19T17:20:03.660Z,100073.88
2024-02-19T17:22:33.678Z,100027.41
2024-02-19T17:32:00.585Z,100054.22
2024-02-19T17:34:31.276Z,100073.34
2024-02-19T17:37:30.966Z,100077.53
2024-02-19T17:40:35.262Z,100070.72
2024-02-19T17:43:08.508Z,100071.19
2024-02-19T17:45:39.721Z,100069.47
2024-02-19T17:48:10.066Z,100056.56
2024-02-19T17:54:05.302Z,100061.06
2024-02-19T17:56:32.901Z,100067.75
2024-02-19T17:59:01.201Z,100064.66
2024-02-19T18:05:17.084Z,100083.84
2024-02-19T18:07:48.661Z,100068.03
2024-02-19T18:10:38.037Z,100072.94
2024-02-19T18:13:10.461Z,100089.81
2024-02-19T18:15:40.381Z,100085.06
2024-02-19T18:18:17.327Z,100074.38
2024-02-19T18:20:49.785Z,100103.94
2024-02-19T18:23:17.525Z,100088.06
2024-02-19T18:26:36.452Z,100106.81
2024-02-19T18:29:05.335Z,100090.09
2024-02-19T18:31:40.224Z,100094.44
2024-02-19T18:34:08.134Z,100086.66
2024-02-19T18:36:35.902Z,100103.13
2024-02-19T18:39:05.775Z,100096.22
2024-02-19T18:41:33.593Z,100082.44
2024-02-19T18:44:06.562Z,100084.38
2024-02-19T18:46:34.523Z,100091.28
2024-02-19T18:49:02.767Z,100096.59
2024-02-19T18:51:32.271Z,100115.47
2024-02-19T18:54:04.192Z,100092.47
2024-02-19T18:56:31.883Z,100110.78
2024-02-19T19:02:41.270Z,100111.72
2024-02-19T19:08:39.011Z,100123.44
2024-02-19T19:11:14.022Z,100129.47
2024-02-19T19:13:42.604Z,100107.19
2024-02-19T19:16:39.414Z,100140.38
2024-02-19T19:19:07.206Z,100111.94
2024-02-19T19:21:35.428Z,100121.03
2024-02-19T19:24:07.785Z,100141.66
2024-02-19T19:26:38.180Z,100124.94
2024-02-19T19:29:10.217Z,100104.31
2024-02-19T19:31:44.920Z,100113.09
2024-02-19T19:34:27.960Z,100100.00
2024-02-19T19:37:03.834Z,100095.19
2024-02-19T19:39:31.833Z,100101.09
2024-02-19T19:41:59.274Z,100114.59
2024-02-19T19:44:29.610Z,100120.84
2024-02-19T19:46:58.441Z,100125.47
2024-02-19T19:49:29.164Z,100094.59
2024-02-19T19:51:57.361Z,100121.50
2024-02-19T19:54:25.061Z,100113.63
2024-02-19T19:56:52.580Z,100118.31
2024-02-19T19:59:21.899Z,100121.03
2024-02-19T20:01:50.445Z,100134.38
2024-02-19T20:04:18.037Z,100121.19
2024-02-19T20:06:45.691Z,100132.16
2024-02-19T20:09:13.081Z,100136.69
2024-02-19T20:11:43.363Z,100125.47
2024-02-19T20:14:11.324Z,100132.41
2024-02-19T20:16:42.159Z,100140.78
2024-02-19T20:19:12.020Z,100130.94
2024-02-19T20:21:40.347Z,100133.28
2024-02-19T20:24:07.698Z,100118.16
2024-02-19T20:26:38.972Z,100132.19
2024-02-19T20:29:08.156Z,100121.34
2024-02-19T20:31:35.602Z,100143.59
2024-02-19T20:34:03.380Z,100141.56
2024-02-19T20:36:35.891Z,100126.66
2024-02-19T20:39:05.050Z,100134.06
2024-02-19T20:41:33.301Z,100122.00
2024-02-19T20:44:01.879Z,100126.50
2024-02-19T20:46:34.861Z,100138.84
2024-02-19T20:49:02.869Z,100146.72
2024-02-19T20:51:30.408Z,100143.06
2024-02-19T20:53:57.794Z,100150.28
2024-02-19T20:56:25.399Z,100149.03
2024-02-19T20:58:53.513Z,100149.19
2024-02-19T21:01:21.026Z,100152.66
2024-02-19T21:06:16.668Z,100161.84
2024-02-19T21:08:46.881Z,100163.81
2024-02-19T21:11:16.664Z,100155.63
2024-02-19T21:13:44.044Z,100163.84
2024-02-19T21:16:12.207Z,100161.06
2024-02-19T21:18:46.998Z,100156.28
2024-02-19T21:21:49.067Z,100164.94
2024-02-19T21:24:19.254Z,100161.06
2024-02-19T21:26:46.540Z,100158.59
2024-02-19T21:29:14.368Z,100171.72
2024-02-19T21:31:41.779Z,100170.75
2024-02-19T21:34:11.618Z,100177.72
2024-02-19T21:36:40.470Z,100153.13
2024-02-19T21:39:26.503Z,100152.09
2024-02-19T21:41:54.034Z,100167.09
2024-02-19T21:44:52.745Z,100178.16
2024-02-19T21:47:31.371Z,100150.88
2024-02-19T21:50:11.446Z,100172.56
2024-02-19T21:52:39.475Z,100184.25
2024-02-19T21:55:07.961Z,100167.56
2024-02-19T21:57:40.019Z,100179.50
2024-02-19T22:00:09.545Z,100169.66
2024-02-19T22:02:37.551Z,100165.63
2024-02-19T22:08:30.577Z,100180.50
2024-02-19T22:10:57.951Z,100163.50
2024-02-19T22:13:25.437Z,100190.16
2024-02-19T22:15:55.633Z,100177.34
2024-02-19T22:18:25.870Z,100174.00
2024-02-19T22:20:53.423Z,100164.53
2024-02-19T22:23:22.834Z,100205.78
2024-02-19T22:25:58.477Z,100196.88
2024-02-19T22:28:26.080Z,100191.50
2024-02-19T22:30:53.511Z,100183.59
2024-02-19T22:33:20.919Z,100177.84
2024-02-19T22:35:49.221Z,100170.69
2024-02-19T22:38:16.572Z,100200.59
2024-02-19T22:40:47.873Z,100186.41
2024-02-19T22:43:15.427Z,100186.56
2024-02-19T22:45:46.043Z,100158.88
2024-02-19T22:48:13.700Z,100176.94
2024-02-19T22:50:42.034Z,100207.22
2024-02-19T22:53:10.101Z,100198.84
2024-02-19T22:59:21.698Z,100172.13
2024-02-19T23:02:18.852Z,100209.72
2024-02-19T23:05:19.005Z,100204.88
2024-02-19T23:07:46.604Z,100189.38
2024-02-19T23:10:14.534Z,100198.97
2024-02-19T23:12:42.403Z,100216.69
2024-02-19T23:15:10.237Z,100210.53
2024-02-19T23:17:41.125Z,100204.75
2024-02-19T23:20:12.964Z,100208.66
2024-02-19T23:26:25.252Z,100205.53
2024-02-19T23:28:52.674Z,100219.19
2024-02-19T23:31:20.266Z,100207.09
2024-02-19T23:34:10.564Z,100220.63
2024-02-19T23:36:42.166Z,100206.50
2024-02-19T23:39:10.544Z,100175.25
2024-02-19T23:41:38.128Z,100195.75
2024-02-19T23:44:05.744Z,100184.25
2024-02-19T23:46:36.246Z,100193.75
2024-02-19T23:49:03.857Z,100201.81
2024-02-19T23:51:31.310Z,100208.94
2024-02-19T23:53:59.488Z,100208.81
2024-02-19T23:56:26.956Z,100187.81
2024-02-19T23:58:54.462Z,100181.28
